Key West, FL

4:53 PM EDT on September 03, 2015 (GMT -0400)
Key West International | | Change Station
CLOSE
Current Station
Airport
Location: Key West,
Elevation: 0 ft
Nearby Weather Stations

Elev 0 ft 24.56 °N, 81.75 °W | Updated 1 hour ago

Partly Cloudy
Partly Cloudy
88 °F
Feels Like 98 °F
N
6
Wind Variable Wind from SSE

Today
High -- | Low -- °F
--% Chance of Precip.
Yesterday
High -- | Low -- °F
Precip. -- in
7:08 AM 7:43 PM
Waning Gibbous, 67% visible
Pressure 29.95 in
Visibility 10.0 miles
Clouds Few 3200 ft
Heat Index 98 °F
Dew Point 75 °F
Humidity 65%
Rainfall 0.02 in
Snow Depth Not available.
UV 10 out of 12
Pollen 5.10 out of 12
Air Quality Not available.
Flu Activity Not available.
METAR KEYW 031953Z 15005KT 10SM FEW032 31/24 A2995 RMK AO2 SLP141 T03110239
Pressure 29.95 in
Visibility 10.0 miles
Clouds Few 3200 ft
Heat Index 98 °F
Dew Point 75 °F
Humidity 65%
Rainfall 0.02 in
Snow Depth Not available.
UV 10 out of 12
Pollen 5.10 out of 12
Air Quality Not available.
Flu Activity Not available.
METAR KEYW 031953Z 15005KT 10SM FEW032 31/24 A2995 RMK AO2 SLP141 T03110239
Nowcast | as of 3:52 PM EDT on September 3, 2015

Through 5 PM...isolated showers and a few thunderstorms will continue to develop along a cloud line situated from the torches west southwest to the Marquesas Keys. Over land...some locations from the torches to Key West in the path of the heavier showers will receive rainfall up to 3 or 4 tenths of an inch. Mariners and motorists in the path of the stronger showers and thunderstorms will encounter brief moderate to heavy rainfall accompanied by visibility less than 2 miles...gusty winds...and occasional lightning strikes. Other isolated showers and a few thunderstorms will continue across Gulf and Atlantic waters on either side from the Marquesas Keys to 20 nm west of Dry Tortugas. Movement of the activity continues slowly to the west southwest at around 5 knots.

×

10-Day Weather Forecast

×

Almanac

Astronomy

Sep. 03, 2015 Rise Set
Actual Time
Civil Twilight
Nautical Twilight
Astronomical Twilight
Moon
Length of Visible Light
Length of Day
Tomorrow will be .
, % of the Moon is Illuminated

Today's Extremes

State Highs State Lows

Community

WunderPhotos

Upload Photos

1,852,036 photos uploaded!

WunderBlogs® & News

Nearby

Air Quality

  Air Quality AQ Index Pollutant
Not available.

Snow Depth

Station Depth Elevation

Earthquake Activity

City Distance Mag. Time & Date
Minimum magnitude displayed is 2.5.

Coastal Water Temperatures

Place Temperature

Stations

Nearby Weather Stations

Station Location Temp. Windchill Dew Point Humidity Wind Precip. Elev Updated Type